createdAt,value
2022-08-18T00:01:05.855Z,22.50
2022-08-18T00:03:56.672Z,22.50
2022-08-18T00:06:19.849Z,22.50
2022-08-18T00:08:46.598Z,22.50
2022-08-18T00:11:13.333Z,22.50
2022-08-18T00:13:40.183Z,22.60
2022-08-18T00:16:07.143Z,22.60
2022-08-18T00:18:33.930Z,22.60
2022-08-18T00:21:02.277Z,22.50
2022-08-18T00:23:31.442Z,22.50
2022-08-18T00:25:59.557Z,22.50
2022-08-18T00:28:26.392Z,22.50
2022-08-18T00:30:53.791Z,22.50
2022-08-18T00:33:21.200Z,22.50
2022-08-18T00:35:47.989Z,22.50
2022-08-18T00:38:25.023Z,22.50
2022-08-18T00:40:53.310Z,22.50
2022-08-18T00:43:23.685Z,22.40
2022-08-18T00:45:50.453Z,22.40
2022-08-18T00:48:17.253Z,22.40
2022-08-18T00:50:48.715Z,22.40
2022-08-18T00:53:30.513Z,22.30
2022-08-18T00:55:58.979Z,22.30
2022-08-18T00:58:29.490Z,22.30
2022-08-18T01:00:56.500Z,22.30
2022-08-18T01:03:25.345Z,22.20
2022-08-18T01:06:11.952Z,22.20
2022-08-18T01:08:40.421Z,22.20
2022-08-18T01:11:07.805Z,22.10
2022-08-18T01:13:34.566Z,22.10
2022-08-18T01:16:21.407Z,22.00
2022-08-18T01:19:06.583Z,22.00
2022-08-18T01:21:51.584Z,21.90
2022-08-18T01:24:48.130Z,21.90
2022-08-18T01:27:18.005Z,21.90
2022-08-18T01:29:46.267Z,21.90
2022-08-18T01:32:16.540Z,22.00
2022-08-18T01:34:48.130Z,22.00
2022-08-18T01:37:20.137Z,22.00
2022-08-18T01:41:22.243Z,22.00
2022-08-18T01:42:33.981Z,22.00
2022-08-18T01:45:04.483Z,22.00
2022-08-18T01:47:31.480Z,22.00
2022-08-18T01:50:15.165Z,22.00
2022-08-18T01:52:41.952Z,22.00
2022-08-18T01:55:09.394Z,22.00
2022-08-18T01:57:43.190Z,21.90
2022-08-18T02:00:12.570Z,22.00
2022-08-18T02:02:39.669Z,21.90
2022-08-18T02:05:11.227Z,21.90
2022-08-18T02:07:38.236Z,21.90
2022-08-18T02:10:11.955Z,21.90
2022-08-18T02:12:40.279Z,21.90
2022-08-18T02:15:07.998Z,21.90
2022-08-18T02:17:43.043Z,21.90
2022-08-18T02:20:11.303Z,21.90
2022-08-18T02:22:38.117Z,21.90
2022-08-18T02:25:05.222Z,21.80
2022-08-18T02:27:33.893Z,21.80
2022-08-18T02:30:01.128Z,21.80
2022-08-18T02:32:29.503Z,21.90
2022-08-18T02:34:56.365Z,21.90
2022-08-18T02:37:23.201Z,21.90
2022-08-18T02:39:51.801Z,21.90
2022-08-18T02:42:18.629Z,21.80
2022-08-18T02:44:45.423Z,21.80
2022-08-18T02:47:12.341Z,21.80
2022-08-18T02:49:39.128Z,21.70
2022-08-18T02:52:06.176Z,21.70
2022-08-18T02:54:35.380Z,21.70
2022-08-18T02:57:06.792Z,21.70
2022-08-18T02:59:33.723Z,21.70
2022-08-18T03:02:00.515Z,21.70
2022-08-18T03:04:29.810Z,21.70
2022-08-18T03:07:01.868Z,21.70
2022-08-18T03:09:29.389Z,21.60
2022-08-18T03:11:56.211Z,21.70
2022-08-18T03:14:22.946Z,21.70
2022-08-18T03:16:54.105Z,21.70
2022-08-18T03:19:31.155Z,21.70
2022-08-18T03:22:02.912Z,21.60
2022-08-18T03:24:31.474Z,21.60
2022-08-18T03:26:59.405Z,21.60
2022-08-18T03:29:31.197Z,21.50
2022-08-18T03:31:59.193Z,21.50
2022-08-18T03:34:26.029Z,21.40
2022-08-18T03:36:52.800Z,21.40
2022-08-18T03:39:19.893Z,21.30
2022-08-18T03:41:58.971Z,21.30
2022-08-18T03:44:32.678Z,21.30
2022-08-18T03:47:00.269Z,21.40
2022-08-18T03:49:27.274Z,21.40
2022-08-18T03:51:54.513Z,21.50
2022-08-18T03:54:21.264Z,21.50
2022-08-18T03:56:48.245Z,21.50
2022-08-18T03:59:18.257Z,21.50
2022-08-18T04:01:46.248Z,21.50
2022-08-18T04:04:17.324Z,21.50
2022-08-18T04:06:54.047Z,21.40
2022-08-18T04:09:21.377Z,21.50
2022-08-18T04:11:49.010Z,21.50
2022-08-18T04:14:18.287Z,21.60
2022-08-18T04:16:45.252Z,21.70
2022-08-18T04:19:13.745Z,21.80
2022-08-18T04:21:41.894Z,21.90
2022-08-18T04:24:09.349Z,22.10
2022-08-18T04:26:40.113Z,22.30
2022-08-18T04:29:07.164Z,22.40
2022-08-18T04:31:34.004Z,22.70
2022-08-18T04:34:00.928Z,22.80
2022-08-18T04:36:28.448Z,22.90
2022-08-18T04:38:56.511Z,23.20
2022-08-18T04:41:27.467Z,23.40
2022-08-18T04:43:58.354Z,23.50
2022-08-18T04:46:26.180Z,23.70
2022-08-18T04:48:53.044Z,23.80
2022-08-18T04:52:30.710Z,23.90
2022-08-18T04:54:07.148Z,24.10
2022-08-18T04:56:38.998Z,24.30
2022-08-18T04:59:09.490Z,24.60
2022-08-18T05:01:38.402Z,24.90
2022-08-18T05:04:05.518Z,25.20
2022-08-18T05:06:32.960Z,25.40
2022-08-18T05:09:02.248Z,25.60
2022-08-18T05:11:29.807Z,25.70
2022-08-18T05:13:57.796Z,25.90
2022-08-18T05:16:27.609Z,26.00
2022-08-18T05:18:54.789Z,26.10
2022-08-18T05:21:24.363Z,26.30
2022-08-18T05:23:51.750Z,26.50
2022-08-18T05:26:18.856Z,26.90
2022-08-18T05:28:45.804Z,27.30
2022-08-18T05:31:20.671Z,27.50
2022-08-18T05:33:47.942Z,27.90
2022-08-18T05:36:43.575Z,28.30
2022-08-18T05:39:18.993Z,28.80
2022-08-18T05:41:47.082Z,29.20
2022-08-18T05:44:15.518Z,29.30
2022-08-18T05:46:59.610Z,29.20
2022-08-18T05:49:26.786Z,29.10
2022-08-18T05:51:57.067Z,28.90
2022-08-18T05:54:43.123Z,28.90
2022-08-18T05:57:17.147Z,28.80
2022-08-18T05:59:43.985Z,28.50
2022-08-18T06:02:28.448Z,28.40
2022-08-18T06:04:58.548Z,28.30
2022-08-18T06:07:34.725Z,28.20
2022-08-18T06:10:01.744Z,28.20
2022-08-18T06:12:33.529Z,28.50
2022-08-18T06:15:18.888Z,28.90
2022-08-18T06:17:59.532Z,29.40
2022-08-18T06:20:47.948Z,29.80
2022-08-18T06:23:36.055Z,30.20
2022-08-18T06:26:15.003Z,30.70
2022-08-18T06:29:00.901Z,31.30
2022-08-18T06:31:37.596Z,31.80
2022-08-18T06:34:19.292Z,32.20
2022-08-18T06:37:10.897Z,32.70
2022-08-18T06:39:50.163Z,33.10
2022-08-18T06:42:31.225Z,33.60
2022-08-18T06:45:07.057Z,34.10
2022-08-18T06:47:54.769Z,34.10
2022-08-18T06:50:44.896Z,34.00
2022-08-18T06:53:26.718Z,33.80
2022-08-18T06:55:57.763Z,33.40
2022-08-18T06:58:35.087Z,33.30
2022-08-18T07:01:05.334Z,33.30
2022-08-18T07:03:52.770Z,33.50
2022-08-18T07:06:22.401Z,33.70
2022-08-18T07:08:50.518Z,33.80
2022-08-18T07:11:25.677Z,34.00
2022-08-18T07:14:16.425Z,34.30
2022-08-18T07:17:00.044Z,34.30
2022-08-18T07:19:30.739Z,34.20
2022-08-18T07:22:13.537Z,33.90
2022-08-18T07:24:46.529Z,33.70
2022-08-18T07:27:14.818Z,33.60
2022-08-18T07:29:59.648Z,33.90
2022-08-18T07:32:40.933Z,34.20
2022-08-18T07:35:11.196Z,34.20
2022-08-18T07:38:24.608Z,34.10
2022-08-18T07:41:02.913Z,33.90
2022-08-18T07:43:38.255Z,33.80
2022-08-18T07:46:17.708Z,33.60
2022-08-18T07:48:46.959Z,33.70
2022-08-18T07:51:48.191Z,33.90
2022-08-18T07:54:48.818Z,33.90
2022-08-18T07:57:24.774Z,34.20
2022-08-18T08:00:35.185Z,34.40
2022-08-18T08:03:20.139Z,34.20
2022-08-18T08:06:17.409Z,34.30
2022-08-18T08:09:09.092Z,34.20
2022-08-18T08:11:48.629Z,34.10
2022-08-18T08:14:31.145Z,34.10
2022-08-18T08:17:09.974Z,34.20
2022-08-18T08:20:01.330Z,34.20
2022-08-18T08:23:03.744Z,34.20
2022-08-18T08:25:55.633Z,34.30
2022-08-18T08:28:40.323Z,34.10
2022-08-18T08:31:49.056Z,34.00
2022-08-18T08:34:28.734Z,33.90
2022-08-18T08:37:06.861Z,34.10
2022-08-18T08:39:53.444Z,34.30
2022-08-18T08:42:31.844Z,34.60
2022-08-18T08:45:10.920Z,34.80
2022-08-18T08:47:51.267Z,35.00
2022-08-18T08:50:23.266Z,35.10
2022-08-18T08:53:17.245Z,35.20
2022-08-18T08:56:00.108Z,35.00
2022-08-18T08:58:40.663Z,34.70
2022-08-18T09:01:09.578Z,34.50
2022-08-18T09:03:48.224Z,34.40
2022-08-18T09:06:28.480Z,34.10
2022-08-18T09:09:43.048Z,33.90
2022-08-18T09:12:39.221Z,33.90
2022-08-18T09:15:51.821Z,34.10
2022-08-18T09:18:36.435Z,34.20
2022-08-18T09:21:25.407Z,34.20
2022-08-18T09:23:53.600Z,34.30
2022-08-18T09:26:39.893Z,34.20
2022-08-18T09:29:24.042Z,34.30
2022-08-18T09:32:24.119Z,34.50
2022-08-18T09:35:20.181Z,34.80
2022-08-18T09:38:39.040Z,34.80
2022-08-18T09:41:32.403Z,35.00
2022-08-18T09:44:12.058Z,35.00
2022-08-18T09:46:47.988Z,34.80
2022-08-18T09:49:27.026Z,34.90
2022-08-18T09:51:58.869Z,34.90
2022-08-18T09:54:31.029Z,35.00
2022-08-18T09:57:09.458Z,35.10
2022-08-18T09:59:36.624Z,35.10
2022-08-18T10:02:06.472Z,35.00
2022-08-18T10:04:53.874Z,35.00
2022-08-18T10:07:43.532Z,35.20
2022-08-18T10:11:00.785Z,35.30
2022-08-18T10:13:49.897Z,35.40
2022-08-18T10:16:51.267Z,35.60
2022-08-18T10:19:39.807Z,35.70
2022-08-18T10:22:09.041Z,35.90
2022-08-18T10:24:44.786Z,35.90
2022-08-18T10:27:33.122Z,35.90
2022-08-18T10:30:00.651Z,35.90
2022-08-18T10:32:44.369Z,36.00
2022-08-18T10:35:37.660Z,36.00
2022-08-18T10:38:14.145Z,36.00
2022-08-18T10:40:43.726Z,35.50
2022-08-18T10:43:58.138Z,35.10
2022-08-18T10:46:25.491Z,34.70
2022-08-18T10:49:12.451Z,34.40
2022-08-18T10:52:02.176Z,34.40
2022-08-18T10:54:35.649Z,34.70
2022-08-18T10:57:40.917Z,34.90
2022-08-18T11:00:13.411Z,35.10
2022-08-18T11:03:01.982Z,35.20
2022-08-18T11:05:31.870Z,35.20
2022-08-18T11:08:02.308Z,35.10
2022-08-18T11:11:06.606Z,35.10
2022-08-18T11:13:58.847Z,35.10
2022-08-18T11:16:37.981Z,35.10
2022-08-18T11:19:10.697Z,35.20
2022-08-18T11:21:42.703Z,35.40
2022-08-18T11:24:20.113Z,35.40
2022-08-18T11:26:52.385Z,35.30
2022-08-18T11:29:32.570Z,35.00
2022-08-18T11:32:05.949Z,34.80
2022-08-18T11:34:57.702Z,34.70
2022-08-18T11:37:27.758Z,34.80
2022-08-18T11:39:57.748Z,35.10
2022-08-18T11:42:33.344Z,35.20
2022-08-18T11:45:23.550Z,35.30
2022-08-18T11:48:10.173Z,35.30
2022-08-18T11:51:05.349Z,35.10
2022-08-18T11:56:38.895Z,34.70
2022-08-18T11:59:52.655Z,34.50
2022-08-18T12:02:19.494Z,34.40
2022-08-18T12:04:53.418Z,34.50
2022-08-18T12:07:57.102Z,34.50
2022-08-18T12:10:33.185Z,34.80
2022-08-18T12:13:00.501Z,34.90
2022-08-18T12:15:29.680Z,35.00
2022-08-18T12:18:11.337Z,34.90
2022-08-18T12:20:53.261Z,34.70
2022-08-18T12:23:20.010Z,34.60
2022-08-18T12:25:48.041Z,34.60
2022-08-18T12:28:19.322Z,34.50
2022-08-18T12:30:49.063Z,34.30
2022-08-18T12:33:25.738Z,34.30
2022-08-18T12:36:02.500Z,34.20
2022-08-18T12:38:32.650Z,34.20
2022-08-18T12:41:03.555Z,34.30
2022-08-18T12:43:32.337Z,34.30
2022-08-18T12:46:00.019Z,34.30
2022-08-18T12:48:28.115Z,34.20
2022-08-18T12:50:58.569Z,34.30
2022-08-18T12:53:29.441Z,34.30
2022-08-18T12:56:06.448Z,34.20
2022-08-18T12:58:36.472Z,34.10
2022-08-18T13:06:40.795Z,34.30
2022-08-18T13:09:16.234Z,34.30
2022-08-18T13:11:54.744Z,34.30
2022-08-18T13:14:21.487Z,34.10
2022-08-18T13:16:54.972Z,34.10
2022-08-18T13:19:21.971Z,34.10
2022-08-18T13:21:49.662Z,34.00
2022-08-18T13:24:16.639Z,34.10
2022-08-18T13:26:49.027Z,34.10
2022-08-18T13:29:18.456Z,34.10
2022-08-18T13:31:55.627Z,34.10
2022-08-18T13:34:25.452Z,34.20
2022-08-18T13:36:52.205Z,34.10
2022-08-18T13:39:23.370Z,34.10
2022-08-18T13:41:52.670Z,34.00
2022-08-18T13:44:20.509Z,34.00
2022-08-18T13:46:48.284Z,33.90
2022-08-18T13:49:16.006Z,33.90
2022-08-18T13:51:51.302Z,33.90
2022-08-18T13:54:31.291Z,33.90
2022-08-18T13:56:58.712Z,33.90
2022-08-18T13:59:27.073Z,33.90
2022-08-18T14:01:54.032Z,34.00
2022-08-18T14:04:22.809Z,34.00
2022-08-18T14:06:57.371Z,34.00
2022-08-18T14:09:27.929Z,34.00
2022-08-18T14:12:21.814Z,33.90
2022-08-18T14:14:54.187Z,33.80
2022-08-18T14:17:22.873Z,33.80
2022-08-18T14:20:21.304Z,33.80
2022-08-18T14:23:21.552Z,33.90
2022-08-18T14:26:09.248Z,33.80
2022-08-18T14:28:35.996Z,33.80
2022-08-18T14:31:07.070Z,33.80
2022-08-18T14:33:50.258Z,33.80
2022-08-18T14:36:19.112Z,33.70
2022-08-18T14:38:45.862Z,33.70
2022-08-18T14:41:13.331Z,33.60
2022-08-18T14:43:55.647Z,33.60
2022-08-18T14:46:30.137Z,33.70
2022-08-18T14:48:59.295Z,33.60
2022-08-18T14:51:27.322Z,33.60
2022-08-18T14:53:54.416Z,33.60
2022-08-18T14:56:24.366Z,33.60
2022-08-18T14:58:55.067Z,33.60
2022-08-18T15:01:22.547Z,33.60
2022-08-18T15:03:49.897Z,33.70
2022-08-18T15:06:23.084Z,33.70
2022-08-18T15:08:54.651Z,33.70
2022-08-18T15:11:24.061Z,33.80
2022-08-18T15:13:51.601Z,33.80
2022-08-18T15:16:31.599Z,33.90
2022-08-18T15:18:59.283Z,33.90
2022-08-18T15:21:46.426Z,34.00
2022-08-18T15:24:33.373Z,34.00
2022-08-18T15:27:06.176Z,34.00
2022-08-18T15:29:37.083Z,33.90
2022-08-18T15:32:10.493Z,33.80
2022-08-18T15:34:46.332Z,33.80
2022-08-18T15:37:15.925Z,33.70
2022-08-18T15:39:46.509Z,33.60
2022-08-18T15:42:18.647Z,33.50
2022-08-18T15:44:46.159Z,33.50
2022-08-18T15:47:20.922Z,33.40
2022-08-18T15:49:48.237Z,33.40
2022-08-18T15:52:15.243Z,33.30
2022-08-18T15:54:50.415Z,33.30
2022-08-18T15:57:39.718Z,33.30
2022-08-18T16:00:05.416Z,33.20
2022-08-18T16:02:32.242Z,33.20
2022-08-18T16:05:09.125Z,33.10
2022-08-18T16:07:41.242Z,33.10
2022-08-18T16:10:12.700Z,33.00
2022-08-18T16:12:45.625Z,32.90
2022-08-18T16:15:21.588Z,32.80
2022-08-18T16:17:49.497Z,32.60
2022-08-18T16:20:16.342Z,32.30
2022-08-18T16:22:45.279Z,32.10
2022-08-18T16:25:12.224Z,31.80
2022-08-18T16:27:42.291Z,31.40
2022-08-18T16:30:10.515Z,31.10
2022-08-18T16:32:37.446Z,30.70
2022-08-18T16:35:08.847Z,30.50
2022-08-18T16:37:35.834Z,30.30
2022-08-18T16:40:04.286Z,30.10
2022-08-18T16:42:36.451Z,30.00
2022-08-18T16:45:03.990Z,29.90
2022-08-18T16:47:33.479Z,29.70
2022-08-18T16:50:01.021Z,29.60
2022-08-18T16:52:27.838Z,29.50
2022-08-18T16:54:57.247Z,29.50
2022-08-18T16:57:53.437Z,29.40
2022-08-18T17:00:41.712Z,29.30
2022-08-18T17:03:27.278Z,29.20
2022-08-18T17:06:04.961Z,29.10
2022-08-18T17:08:34.146Z,29.10
2022-08-18T17:11:02.108Z,28.90
2022-08-18T17:13:29.819Z,28.70
2022-08-18T17:15:56.709Z,28.50
2022-08-18T17:18:24.524Z,28.20
2022-08-18T17:20:52.443Z,28.00
2022-08-18T17:23:22.748Z,27.80
2022-08-18T17:25:53.279Z,27.70
2022-08-18T17:28:26.192Z,27.60
2022-08-18T17:30:53.545Z,27.50
2022-08-18T17:33:27.348Z,27.40
2022-08-18T17:36:04.665Z,27.30
2022-08-18T17:38:38.816Z,27.20
2022-08-18T17:41:06.282Z,27.10
2022-08-18T17:46:18.151Z,26.90
2022-08-18T17:48:52.669Z,26.80
2022-08-18T17:51:42.530Z,26.70
2022-08-18T17:54:17.355Z,26.50
2022-08-18T17:56:53.109Z,26.40
2022-08-18T17:59:52.251Z,26.30
2022-08-18T18:02:29.495Z,26.20
2022-08-18T18:04:58.519Z,26.10
2022-08-18T18:07:28.447Z,26.00
2022-08-18T18:10:08.262Z,25.90
2022-08-18T18:12:36.065Z,25.80
2022-08-18T18:15:07.955Z,25.70
2022-08-18T18:17:37.846Z,25.60
2022-08-18T18:20:38.129Z,25.60
2022-08-18T18:23:22.652Z,25.50
2022-08-18T18:25:50.313Z,25.40
2022-08-18T18:28:30.051Z,25.30
2022-08-18T18:30:58.809Z,25.30
2022-08-18T18:33:29.994Z,25.20
2022-08-18T18:35:57.970Z,25.10
2022-08-18T18:38:27.779Z,25.10
2022-08-18T18:41:06.846Z,25.00
2022-08-18T18:43:38.297Z,24.90
2022-08-18T18:46:19.488Z,24.90
2022-08-18T18:49:03.793Z,24.90
2022-08-18T18:51:52.547Z,24.80
2022-08-18T18:54:22.397Z,24.70
2022-08-18T18:56:53.975Z,24.70
2022-08-18T19:00:10.073Z,24.70
2022-08-18T19:02:42.704Z,24.60
2022-08-18T19:05:09.532Z,24.60
2022-08-18T19:07:54.876Z,24.50
2022-08-18T19:10:30.883Z,24.50
2022-08-18T19:13:08.446Z,24.40
2022-08-18T19:15:38.264Z,24.50
2022-08-18T19:18:28.193Z,24.40
2022-08-18T19:22:03.504Z,24.30
2022-08-18T19:24:08.470Z,24.20
2022-08-18T19:26:39.374Z,24.20
2022-08-18T19:29:13.942Z,24.20
2022-08-18T19:32:04.137Z,24.20
2022-08-18T19:34:36.045Z,24.20
2022-08-18T19:37:50.693Z,24.10
2022-08-18T19:40:24.788Z,24.00
2022-08-18T19:43:00.733Z,23.90
2022-08-18T19:45:36.248Z,23.90
2022-08-18T19:48:39.336Z,23.80
2022-08-18T19:51:12.350Z,23.70
2022-08-18T19:53:49.275Z,23.70
2022-08-18T19:56:37.565Z,23.60
2022-08-18T19:59:19.451Z,23.60
2022-08-18T20:02:15.814Z,23.50
2022-08-18T20:05:13.925Z,23.40
2022-08-18T20:08:09.942Z,23.40
2022-08-18T20:10:42.591Z,23.40
2022-08-18T20:13:36.684Z,23.40
2022-08-18T20:16:10.518Z,23.40
2022-08-18T20:18:42.776Z,23.40
2022-08-18T20:21:15.741Z,23.40
2022-08-18T20:24:05.077Z,23.40
2022-08-18T20:26:38.203Z,23.40
2022-08-18T20:29:32.315Z,23.30
2022-08-18T20:32:01.016Z,23.30
2022-08-18T20:34:32.633Z,23.40
2022-08-18T20:37:00.499Z,23.40
2022-08-18T20:39:42.586Z,23.50
2022-08-18T20:42:21.309Z,23.40
2022-08-18T20:44:57.865Z,23.50
2022-08-18T20:47:36.884Z,23.50
2022-08-18T20:50:21.991Z,23.50
2022-08-18T20:52:49.621Z,23.50
2022-08-18T20:55:35.156Z,23.50
2022-08-18T20:58:15.891Z,23.40
2022-08-18T21:00:44.405Z,23.40
2022-08-18T21:03:12.907Z,23.40
2022-08-18T21:05:41.790Z,23.30
2022-08-18T21:08:16.140Z,23.30
2022-08-18T21:10:53.493Z,23.30
2022-08-18T21:13:40.531Z,23.20
2022-08-18T21:16:08.646Z,23.20
2022-08-18T21:18:35.457Z,23.20
2022-08-18T21:21:04.187Z,23.10
2022-08-18T21:23:36.118Z,23.10
2022-08-18T21:26:11.313Z,23.10
2022-08-18T21:28:39.287Z,23.10
2022-08-18T21:31:42.634Z,23.10
2022-08-18T21:33:59.630Z,23.00
2022-08-18T21:36:31.519Z,23.00
2022-08-18T21:39:07.631Z,23.00
2022-08-18T21:41:39.343Z,23.00
2022-08-18T21:44:08.294Z,23.00
2022-08-18T21:46:35.783Z,23.00
2022-08-18T21:49:03.259Z,23.00
2022-08-18T21:51:32.551Z,23.00
2022-08-18T21:53:59.715Z,22.90
2022-08-18T21:56:28.450Z,22.90
2022-08-18T21:59:18.514Z,22.90
2022-08-18T22:01:56.151Z,22.90
2022-08-18T22:04:35.976Z,22.90
2022-08-18T22:07:16.548Z,22.90
2022-08-18T22:10:21.241Z,22.90
2022-08-18T22:13:13.549Z,23.00
2022-08-18T22:15:44.962Z,22.90
2022-08-18T22:18:18.098Z,22.90
2022-08-18T22:20:48.012Z,22.80
2022-08-18T22:23:33.497Z,22.80
2022-08-18T22:26:07.403Z,22.70
2022-08-18T22:28:34.265Z,22.70
2022-08-18T22:31:00.995Z,22.70
2022-08-18T22:33:28.430Z,22.70
2022-08-18T22:35:55.972Z,22.70
2022-08-18T22:38:23.484Z,22.60
2022-08-18T22:40:50.309Z,22.50
2022-08-18T22:43:17.128Z,22.50
2022-08-18T22:45:43.888Z,22.50
2022-08-18T22:48:11.641Z,22.40
2022-08-18T22:50:38.407Z,22.40
2022-08-18T22:53:05.526Z,22.40
2022-08-18T22:55:33.064Z,22.50
2022-08-18T22:58:01.123Z,22.50
2022-08-18T23:00:29.277Z,22.40
2022-08-18T23:02:57.439Z,22.40
2022-08-18T23:05:24.770Z,22.40
2022-08-18T23:07:51.696Z,22.30
2022-08-18T23:10:18.589Z,22.30
2022-08-18T23:12:46.799Z,22.30
2022-08-18T23:15:14.334Z,22.30
2022-08-18T23:17:42.069Z,22.30
2022-08-18T23:20:12.376Z,22.30
2022-08-18T23:22:45.536Z,22.40
2022-08-18T23:25:13.376Z,22.40
2022-08-18T23:27:41.176Z,22.50
2022-08-18T23:30:08.679Z,22.50
2022-08-18T23:32:35.489Z,22.50
2022-08-18T23:35:02.450Z,22.60
2022-08-18T23:37:30.493Z,22.60
2022-08-18T23:39:57.322Z,22.60
2022-08-18T23:42:24.876Z,22.70
2022-08-18T23:44:51.665Z,22.70
2022-08-18T23:47:20.940Z,22.70
2022-08-18T23:49:48.027Z,22.70
2022-08-18T23:52:14.829Z,22.80
2022-08-18T23:54:41.616Z,22.70
2022-08-18T23:57:08.356Z,22.70
2022-08-18T23:59:35.172Z,22.60
